createdAt,value
2018-04-11T00:01:30.233Z,7.00
2018-04-11T00:03:56.653Z,6.53
2018-04-11T00:06:23.068Z,5.83
2018-04-11T00:08:49.530Z,5.80
2018-04-11T00:11:16.041Z,5.83
2018-04-11T00:13:42.427Z,5.87
2018-04-11T00:16:08.879Z,6.67
2018-04-11T00:18:35.344Z,5.93
2018-04-11T00:21:01.746Z,6.83
2018-04-11T00:23:28.151Z,5.83
2018-04-11T00:25:54.592Z,7.27
2018-04-11T00:28:21.023Z,5.77
2018-04-11T00:30:47.429Z,6.17
2018-04-11T00:33:13.821Z,6.13
2018-04-11T00:35:40.312Z,6.40
2018-04-11T00:38:06.685Z,5.20
2018-04-11T00:40:33.091Z,5.50
2018-04-11T00:42:59.511Z,6.00
2018-04-11T00:45:25.870Z,5.27
2018-04-11T00:47:52.242Z,5.57
2018-04-11T00:50:18.719Z,4.97
2018-04-11T00:55:46.409Z,5.87
2018-04-11T00:58:12.740Z,5.87
2018-04-11T01:00:39.119Z,5.60
2018-04-11T01:03:12.565Z,5.10
2018-04-11T01:05:38.980Z,5.47
2018-04-11T01:08:05.372Z,5.83
2018-04-11T01:10:31.855Z,6.93
2018-04-11T01:12:58.257Z,5.67
2018-04-11T01:15:24.657Z,6.03
2018-04-11T01:17:51.079Z,5.40
2018-04-11T01:20:17.512Z,6.30
2018-04-11T01:22:43.944Z,5.57
2018-04-11T01:25:10.407Z,5.27
2018-04-11T01:27:36.876Z,5.20
2018-04-11T01:30:03.420Z,5.83
2018-04-11T01:32:29.900Z,5.60
2018-04-11T01:34:56.300Z,5.63
2018-04-11T01:37:22.798Z,5.30
2018-04-11T01:39:49.231Z,5.37
2018-04-11T01:42:15.631Z,5.93
2018-04-11T01:44:42.104Z,6.37
2018-04-11T01:47:08.553Z,5.60
2018-04-11T01:49:35.052Z,5.20
2018-04-11T01:52:01.544Z,5.20
2018-04-11T01:54:28.028Z,5.30
2018-04-11T01:56:54.490Z,5.40
2018-04-11T01:59:20.892Z,5.97
2018-04-11T02:01:47.301Z,4.77
2018-04-11T02:04:13.744Z,5.80
2018-04-11T02:06:40.117Z,5.40
2018-04-11T02:09:06.549Z,4.77
2018-04-11T02:11:33.075Z,4.97
2018-04-11T02:13:59.483Z,4.93
2018-04-11T02:16:25.948Z,5.70
2018-04-11T02:18:52.403Z,5.53
2018-04-11T02:21:18.816Z,5.53
2018-04-11T02:23:45.231Z,5.33
2018-04-11T02:26:11.623Z,4.30
2018-04-11T02:28:38.036Z,5.00
2018-04-11T02:31:04.469Z,5.70
2018-04-11T02:33:30.980Z,5.27
2018-04-11T02:35:57.465Z,5.10
2018-04-11T02:38:24.007Z,4.87
2018-04-11T02:40:50.522Z,5.40
2018-04-11T02:43:16.996Z,5.33
2018-04-11T02:45:43.428Z,5.30
2018-04-11T02:48:09.845Z,5.10
2018-04-11T02:50:36.415Z,5.13
2018-04-11T02:53:02.844Z,5.40
2018-04-11T02:55:29.308Z,5.80
2018-04-11T02:57:55.768Z,5.50
2018-04-11T03:00:22.203Z,5.67
2018-04-11T03:02:48.580Z,5.67
2018-04-11T03:05:14.991Z,5.47
2018-04-11T03:07:41.449Z,6.17
2018-04-11T03:10:07.988Z,5.57
2018-04-11T03:12:34.552Z,5.60
2018-04-11T03:15:00.955Z,5.67
2018-04-11T03:17:27.438Z,17.75
2018-04-11T03:19:53.824Z,6.00
2018-04-11T03:22:20.297Z,5.70
2018-04-11T03:24:46.752Z,5.37
2018-04-11T03:27:13.190Z,6.62
2018-04-11T03:29:39.623Z,6.93
2018-04-11T03:32:06.094Z,6.90
2018-04-11T03:34:32.721Z,6.62
2018-04-11T03:36:59.267Z,6.87
2018-04-11T03:39:25.768Z,6.60
2018-04-11T03:41:52.139Z,6.87
2018-04-11T03:44:18.530Z,7.17
2018-04-11T03:46:44.929Z,7.40
2018-04-11T03:49:11.441Z,6.63
2018-04-11T03:51:37.912Z,7.17
2018-04-11T03:54:04.295Z,8.00
2018-04-11T03:56:30.729Z,7.80
2018-04-11T03:58:57.164Z,6.87
2018-04-11T04:01:23.578Z,7.45
2018-04-11T04:03:50.089Z,7.93
2018-04-11T04:06:16.468Z,7.87
2018-04-11T04:08:42.936Z,8.55
2018-04-11T04:11:09.407Z,8.70
2018-04-11T04:13:47.939Z,9.30
2018-04-11T04:16:26.515Z,9.27
2018-04-11T04:19:05.225Z,9.10
2018-04-11T04:21:31.914Z,8.90
2018-04-11T04:23:58.409Z,8.70
2018-04-11T04:26:24.779Z,10.63
2018-04-11T04:28:51.136Z,12.95
2018-04-11T04:31:17.536Z,11.15
2018-04-11T04:33:43.920Z,10.02
2018-04-11T04:36:10.382Z,17.17
2018-04-11T04:38:36.784Z,13.38
2018-04-11T04:41:03.201Z,12.75
2018-04-11T04:43:29.625Z,14.80
2018-04-11T04:45:56.029Z,14.90
2018-04-11T04:48:22.512Z,13.80
2018-04-11T04:50:49.100Z,12.73
2018-04-11T04:53:15.810Z,12.07
2018-04-11T04:55:42.319Z,10.50
2018-04-11T04:58:08.817Z,9.40
2018-04-11T05:00:42.197Z,9.85
2018-04-11T05:03:08.668Z,11.40
2018-04-11T05:05:35.253Z,10.38
2018-04-11T05:08:01.745Z,9.90
2018-04-11T05:10:28.169Z,9.77
2018-04-11T05:12:54.607Z,10.93
2018-04-11T05:15:21.129Z,10.18
2018-04-11T05:17:47.585Z,10.57
2018-04-11T05:20:14.122Z,10.18
2018-04-11T05:22:40.506Z,10.73
2018-04-11T05:25:06.952Z,10.83
2018-04-11T05:27:33.400Z,10.07
2018-04-11T05:29:59.858Z,10.50
2018-04-11T05:32:26.291Z,10.57
2018-04-11T05:34:52.788Z,10.50
2018-04-11T05:37:19.199Z,10.67
2018-04-11T05:39:45.628Z,12.43
2018-04-11T05:42:12.077Z,13.47
2018-04-11T05:44:38.571Z,12.80
2018-04-11T05:47:05.044Z,12.50
2018-04-11T05:49:31.404Z,11.97
2018-04-11T05:51:57.889Z,12.13
2018-04-11T05:54:24.304Z,11.20
2018-04-11T05:56:50.811Z,11.07
2018-04-11T05:59:17.249Z,10.93
2018-04-11T06:01:43.692Z,13.03
2018-04-11T06:04:10.142Z,11.30
2018-04-11T06:06:36.595Z,11.57
2018-04-11T06:09:03.075Z,12.00
2018-04-11T06:11:29.549Z,12.67
2018-04-11T06:13:56.073Z,13.13
2018-04-11T06:16:22.649Z,13.10
2018-04-11T06:18:49.112Z,12.63
2018-04-11T06:21:15.588Z,13.13
2018-04-11T06:23:41.965Z,13.80
2018-04-11T06:26:08.456Z,16.10
2018-04-11T06:28:34.864Z,16.00
2018-04-11T06:31:01.329Z,15.90
2018-04-11T06:33:27.801Z,16.00
2018-04-11T06:35:54.293Z,16.07
2018-04-11T06:38:20.752Z,16.47
2018-04-11T06:40:47.183Z,14.43
2018-04-11T06:43:13.625Z,14.40
2018-04-11T06:45:39.995Z,14.60
2018-04-11T06:48:06.422Z,14.70
2018-04-11T06:50:32.833Z,15.33
2018-04-11T06:52:59.188Z,14.37
2018-04-11T06:55:25.647Z,14.30
2018-04-11T06:57:52.085Z,13.47
2018-04-11T07:00:18.576Z,13.90
2018-04-11T07:02:44.980Z,13.37
2018-04-11T07:05:11.428Z,13.97
2018-04-11T07:07:37.913Z,13.63
2018-04-11T07:10:04.403Z,12.93
2018-04-11T07:12:30.856Z,13.23
2018-04-11T07:14:57.255Z,13.90
2018-04-11T07:17:23.655Z,13.27
2018-04-11T07:19:56.970Z,13.33
2018-04-11T07:22:23.337Z,13.83
2018-04-11T07:24:49.846Z,11.60
2018-04-11T07:27:16.277Z,11.73
2018-04-11T07:29:42.689Z,10.90
2018-04-11T07:32:09.168Z,10.87
2018-04-11T07:34:35.606Z,10.13
2018-04-11T07:37:01.975Z,9.23
2018-04-11T07:39:28.383Z,9.20
2018-04-11T07:41:54.803Z,9.80
2018-04-11T07:44:21.303Z,11.27
2018-04-11T07:46:47.779Z,8.37
2018-04-11T07:49:14.188Z,9.93
2018-04-11T07:51:40.696Z,9.57
2018-04-11T07:54:07.134Z,14.30
2018-04-11T07:56:33.608Z,11.87
2018-04-11T07:59:00.011Z,9.03
2018-04-11T08:01:26.431Z,7.83
2018-04-11T08:03:52.887Z,9.03
2018-04-11T08:06:19.284Z,9.13
2018-04-11T08:08:45.739Z,8.13
2018-04-11T08:11:12.176Z,8.47
2018-04-11T08:13:38.728Z,8.47
2018-04-11T08:16:05.124Z,8.47
2018-04-11T08:18:31.637Z,9.17
2018-04-11T08:20:58.080Z,10.60
2018-04-11T08:23:28.380Z,9.57
2018-04-11T08:25:54.942Z,7.83
2018-04-11T08:28:21.405Z,8.03
2018-04-11T08:30:47.904Z,8.63
2018-04-11T08:33:14.345Z,8.40
2018-04-11T08:35:40.784Z,8.50
2018-04-11T08:38:07.157Z,8.57
2018-04-11T08:40:33.596Z,7.57
2018-04-11T08:43:00.051Z,7.30
2018-04-11T08:45:26.416Z,9.00
2018-04-11T08:47:52.798Z,8.60
2018-04-11T08:50:19.238Z,5.50
2018-04-11T08:52:45.711Z,9.03
2018-04-11T08:55:12.172Z,8.00
2018-04-11T08:57:38.585Z,8.23
2018-04-11T09:00:05.009Z,7.70
2018-04-11T09:02:31.436Z,7.93
2018-04-11T09:04:57.827Z,6.87
2018-04-11T09:07:24.297Z,7.17
2018-04-11T09:09:50.681Z,6.77
2018-04-11T09:12:17.120Z,7.97
2018-04-11T09:14:43.546Z,8.07
2018-04-11T09:17:09.937Z,6.77
2018-04-11T09:19:36.472Z,6.83
2018-04-11T09:22:02.932Z,6.80
2018-04-11T09:24:29.404Z,6.20
2018-04-11T09:26:55.832Z,6.80
2018-04-11T09:29:22.293Z,6.13
2018-04-11T09:31:48.755Z,6.20
2018-04-11T09:34:15.236Z,5.90
2018-04-11T09:36:41.728Z,5.97
2018-04-11T09:39:08.257Z,5.87
2018-04-11T09:41:34.784Z,5.53
2018-04-11T09:44:01.272Z,6.23
2018-04-11T09:46:27.667Z,6.20
2018-04-11T09:48:54.016Z,5.97
2018-04-11T09:51:20.475Z,5.53
2018-04-11T09:53:46.884Z,6.37
2018-04-11T09:56:13.259Z,5.93
2018-04-11T09:58:39.720Z,6.80
2018-04-11T10:01:06.275Z,6.80
2018-04-11T10:03:32.730Z,6.10
2018-04-11T10:05:59.138Z,7.50
2018-04-11T10:08:25.548Z,6.63
2018-04-11T10:10:52.040Z,7.33
2018-04-11T10:13:18.463Z,6.97
2018-04-11T10:15:44.900Z,7.17
2018-04-11T10:18:11.367Z,8.20
2018-04-11T10:20:38.158Z,7.20
2018-04-11T10:23:04.637Z,6.73
2018-04-11T10:25:31.137Z,7.43
2018-04-11T10:27:57.505Z,6.87
2018-04-11T10:30:23.864Z,6.47
2018-04-11T10:32:50.271Z,7.27
2018-04-11T10:35:16.676Z,6.43
2018-04-11T10:37:43.093Z,6.50
2018-04-11T10:40:09.465Z,5.80
2018-04-11T10:42:35.912Z,6.50
2018-04-11T10:45:02.455Z,6.23
2018-04-11T10:47:29.193Z,7.20
2018-04-11T10:49:55.679Z,6.70
2018-04-11T10:52:22.120Z,6.13
2018-04-11T10:54:48.503Z,6.53
2018-04-11T10:57:14.852Z,6.10
2018-04-11T10:59:41.322Z,6.10
2018-04-11T11:02:07.828Z,5.77
2018-04-11T11:04:34.284Z,6.13
2018-04-11T11:07:00.904Z,6.33
2018-04-11T11:09:27.455Z,6.13
2018-04-11T11:11:53.867Z,5.90
2018-04-11T11:14:20.235Z,5.63
2018-04-11T11:16:46.814Z,5.70
2018-04-11T11:19:13.389Z,5.60
2018-04-11T11:21:39.819Z,5.60
2018-04-11T11:24:06.304Z,5.90
2018-04-11T11:26:32.808Z,6.47
2018-04-11T11:28:59.203Z,6.23
2018-04-11T11:31:25.625Z,6.90
2018-04-11T11:33:52.170Z,5.77
2018-04-11T11:36:18.640Z,5.30
2018-04-11T11:38:45.070Z,5.90
2018-04-11T11:41:11.517Z,6.50
2018-04-11T11:43:38.023Z,6.10
2018-04-11T11:46:04.502Z,5.83
2018-04-11T11:48:31.002Z,5.07
2018-04-11T11:50:57.510Z,5.53
2018-04-11T11:53:24.041Z,7.27
2018-04-11T11:55:50.498Z,5.80
2018-04-11T11:58:16.859Z,5.33
2018-04-11T12:00:50.275Z,5.83
2018-04-11T12:03:16.748Z,5.13
2018-04-11T12:05:43.144Z,5.50
2018-04-11T12:08:09.516Z,6.10
2018-04-11T12:10:35.966Z,5.83
2018-04-11T12:13:02.477Z,5.83
2018-04-11T12:15:28.890Z,5.27
2018-04-11T12:17:55.333Z,5.97
2018-04-11T12:20:21.776Z,6.10
2018-04-11T12:22:48.213Z,5.97
2018-04-11T12:25:14.677Z,5.70
2018-04-11T12:27:41.115Z,5.57
2018-04-11T12:30:07.510Z,6.13
2018-04-11T12:32:33.942Z,5.10
2018-04-11T12:35:00.386Z,4.83
2018-04-11T12:37:26.805Z,4.63
2018-04-11T12:39:53.280Z,4.60
2018-04-11T12:42:19.804Z,5.40
2018-04-11T12:44:46.201Z,4.83
2018-04-11T12:47:12.641Z,5.23
2018-04-11T12:49:39.125Z,4.00
2018-04-11T12:52:05.644Z,4.63
2018-04-11T12:54:32.082Z,4.63
2018-04-11T12:56:58.477Z,4.83
2018-04-11T12:59:24.862Z,5.53
2018-04-11T13:01:51.220Z,4.43
2018-04-11T13:04:17.769Z,4.27
2018-04-11T13:06:44.233Z,4.30
2018-04-11T13:09:10.615Z,4.37
2018-04-11T13:11:37.058Z,4.93
2018-04-11T13:14:03.540Z,6.87
2018-04-11T13:16:29.973Z,4.80
2018-04-11T13:18:56.532Z,4.57
2018-04-11T13:21:23.040Z,4.57
2018-04-11T13:23:49.539Z,4.43
2018-04-11T13:26:16.044Z,5.23
2018-04-11T13:28:42.475Z,5.13
2018-04-11T13:31:08.944Z,3.80
2018-04-11T13:33:35.431Z,5.50
2018-04-11T13:36:01.912Z,4.73
2018-04-11T13:38:28.277Z,5.20
2018-04-11T13:40:54.796Z,4.73
2018-04-11T13:43:21.337Z,4.67
2018-04-11T13:45:47.875Z,4.50
2018-04-11T13:48:14.318Z,4.37
2018-04-11T13:50:40.702Z,4.70
2018-04-11T13:53:07.192Z,4.40
2018-04-11T13:55:33.692Z,4.57
2018-04-11T13:58:00.072Z,4.47
2018-04-11T14:00:26.556Z,5.20
2018-04-11T14:02:52.940Z,5.80
2018-04-11T14:05:19.420Z,4.30
2018-04-11T14:07:45.855Z,4.33
2018-04-11T14:10:12.405Z,4.87
2018-04-11T14:12:38.917Z,4.53
2018-04-11T14:15:05.310Z,4.70
2018-04-11T14:17:31.955Z,5.17
2018-04-11T14:19:58.375Z,4.30
2018-04-11T14:22:24.780Z,4.90
2018-04-11T14:24:51.252Z,4.57
2018-04-11T14:27:17.643Z,5.03
2018-04-11T14:29:44.077Z,4.87
2018-04-11T14:32:10.439Z,4.37
2018-04-11T14:34:36.868Z,3.97
2018-04-11T14:37:03.317Z,4.80
2018-04-11T14:39:29.761Z,5.17
2018-04-11T14:41:56.413Z,5.10
2018-04-11T14:44:23.322Z,4.43
2018-04-11T14:46:49.861Z,4.73
2018-04-11T14:49:16.331Z,5.97
2018-04-11T14:51:42.832Z,6.17
2018-04-11T14:54:09.264Z,4.40
2018-04-11T14:56:35.706Z,4.60
2018-04-11T14:59:02.126Z,5.80
2018-04-11T15:01:28.609Z,5.50
2018-04-11T15:03:54.988Z,5.63
2018-04-11T15:06:21.392Z,5.67
2018-04-11T15:08:47.783Z,5.37
2018-04-11T15:11:14.231Z,5.40
2018-04-11T15:13:40.671Z,5.17
2018-04-11T15:16:07.197Z,4.70
2018-04-11T15:18:33.634Z,4.83
2018-04-11T15:21:00.001Z,4.63
2018-04-11T15:23:26.426Z,5.00
2018-04-11T15:25:52.913Z,4.67
2018-04-11T15:28:19.321Z,6.13
2018-04-11T15:30:45.720Z,7.00
2018-04-11T15:33:12.099Z,6.00
2018-04-11T15:35:38.584Z,5.83
2018-04-11T15:38:05.085Z,6.37
2018-04-11T15:40:31.802Z,6.17
2018-04-11T15:42:58.205Z,5.60
2018-04-11T15:45:24.635Z,5.53
2018-04-11T15:47:51.117Z,6.03
2018-04-11T15:50:17.581Z,7.03
2018-04-11T15:52:44.003Z,8.20
2018-04-11T15:55:10.509Z,12.20
2018-04-11T15:57:36.945Z,7.80
2018-04-11T16:00:03.376Z,8.80
2018-04-11T16:02:29.791Z,6.23
2018-04-11T16:04:56.183Z,7.20
2018-04-11T16:07:22.587Z,8.00
2018-04-11T16:09:49.048Z,7.27
2018-04-11T16:12:15.514Z,5.80
2018-04-11T16:14:41.897Z,5.40
2018-04-11T16:17:08.412Z,5.70
2018-04-11T16:19:34.864Z,7.20
2018-04-11T16:22:01.298Z,5.23
2018-04-11T16:24:28.037Z,6.50
2018-04-11T16:26:54.539Z,7.13
2018-04-11T16:29:21.527Z,7.20
2018-04-11T16:31:48.174Z,7.67
2018-04-11T16:34:14.612Z,5.87
2018-04-11T16:36:41.071Z,5.17
2018-04-11T16:39:07.532Z,5.83
2018-04-11T16:41:34.251Z,5.90
2018-04-11T16:44:00.664Z,4.70
2018-04-11T16:46:27.100Z,6.63
2018-04-11T16:48:53.646Z,6.33
2018-04-11T16:51:20.113Z,6.30
2018-04-11T16:53:46.648Z,6.57
2018-04-11T16:56:13.034Z,7.33
2018-04-11T16:58:39.662Z,8.40
2018-04-11T17:01:06.213Z,7.63
2018-04-11T17:03:32.749Z,6.30
2018-04-11T17:05:59.200Z,7.00
2018-04-11T17:08:25.635Z,7.43
2018-04-11T17:10:52.175Z,9.43
2018-04-11T17:13:18.714Z,8.07
2018-04-11T17:15:45.220Z,9.30
2018-04-11T17:18:11.656Z,38.47
2018-04-11T17:20:50.385Z,60.40
2018-04-11T17:23:28.724Z,21.63
2018-04-11T17:26:07.272Z,13.40
2018-04-11T17:28:45.929Z,9.40
2018-04-11T17:34:06.304Z,11.93
2018-04-11T17:36:32.734Z,10.43
2018-04-11T17:38:59.876Z,9.50
2018-04-11T17:41:26.490Z,9.40
2018-04-11T17:43:53.039Z,9.63
2018-04-11T17:46:19.610Z,7.90
2018-04-11T17:48:45.966Z,7.50
2018-04-11T17:51:12.375Z,7.67
2018-04-11T17:53:38.828Z,6.97
2018-04-11T17:56:05.261Z,6.63
2018-04-11T17:58:31.638Z,6.57
2018-04-11T18:00:58.045Z,6.27
2018-04-11T18:03:24.552Z,5.83
2018-04-11T18:05:51.044Z,6.37
2018-04-11T18:08:17.544Z,7.07
2018-04-11T18:10:44.041Z,5.83
2018-04-11T18:13:10.452Z,6.40
2018-04-11T18:15:36.876Z,6.00
2018-04-11T18:18:03.330Z,6.37
2018-04-11T18:20:29.704Z,6.07
2018-04-11T18:22:56.145Z,6.27
2018-04-11T18:25:22.600Z,5.23
2018-04-11T18:27:49.759Z,6.37
2018-04-11T18:30:16.352Z,5.60
2018-04-11T18:32:42.752Z,5.23
2018-04-11T18:35:09.234Z,25.23
2018-04-11T18:37:35.697Z,5.80
2018-04-11T18:40:02.110Z,6.83
2018-04-11T18:42:28.638Z,4.73
2018-04-11T18:44:55.153Z,5.30
2018-04-11T18:47:21.621Z,5.70
2018-04-11T18:49:47.937Z,5.90
2018-04-11T18:52:14.409Z,5.60
2018-04-11T18:54:40.878Z,5.80
2018-04-11T18:57:07.306Z,5.93
2018-04-11T18:59:33.769Z,5.80
2018-04-11T19:02:00.092Z,6.13
2018-04-11T19:04:26.443Z,5.87
2018-04-11T19:06:52.819Z,6.33
2018-04-11T19:09:19.312Z,6.23
2018-04-11T19:11:45.704Z,6.47
2018-04-11T19:14:12.119Z,7.47
2018-04-11T19:16:38.567Z,7.60
2018-04-11T19:19:05.074Z,7.53
2018-04-11T19:21:31.574Z,7.53
2018-04-11T19:23:58.014Z,7.90
2018-04-11T19:26:24.460Z,7.70
2018-04-11T19:28:50.888Z,8.10
2018-04-11T19:31:17.394Z,7.53
2018-04-11T19:33:43.804Z,7.47
2018-04-11T19:36:10.260Z,7.33
2018-04-11T19:38:36.667Z,7.37
2018-04-11T19:41:03.148Z,7.80
2018-04-11T19:43:29.527Z,7.40
2018-04-11T19:45:55.993Z,7.17
2018-04-11T19:48:22.395Z,7.83
2018-04-11T19:50:48.933Z,7.60
2018-04-11T19:53:15.326Z,8.30
2018-04-11T19:55:41.833Z,9.87
2018-04-11T19:58:08.304Z,7.67
2018-04-11T20:00:34.815Z,7.73
2018-04-11T20:03:01.349Z,7.50
2018-04-11T20:05:27.765Z,7.40
2018-04-11T20:07:54.740Z,7.80
2018-04-11T20:10:21.045Z,7.53
2018-04-11T20:12:47.512Z,7.87
2018-04-11T20:15:13.913Z,8.60
2018-04-11T20:17:40.325Z,7.53
2018-04-11T20:20:06.795Z,8.23
2018-04-11T20:22:33.231Z,8.30
2018-04-11T20:24:59.612Z,7.97
2018-04-11T20:27:26.044Z,7.23
2018-04-11T20:29:52.490Z,8.40
2018-04-11T20:32:18.860Z,8.50
2018-04-11T20:34:45.266Z,8.53
2018-04-11T20:37:11.810Z,8.80
2018-04-11T20:39:38.307Z,9.13
2018-04-11T20:42:04.956Z,8.70
2018-04-11T20:44:31.355Z,9.50
2018-04-11T20:46:57.757Z,8.77
2018-04-11T20:49:24.086Z,9.67
2018-04-11T20:51:57.575Z,8.40
2018-04-11T20:54:24.038Z,9.90
2018-04-11T20:56:50.481Z,9.93
2018-04-11T20:59:16.864Z,10.77
2018-04-11T21:01:43.337Z,9.80
2018-04-11T21:04:09.945Z,9.20
2018-04-11T21:06:36.416Z,9.80
2018-04-11T21:09:03.041Z,9.33
2018-04-11T21:11:29.456Z,9.60
2018-04-11T21:13:55.802Z,10.10
2018-04-11T21:16:22.274Z,10.43
2018-04-11T21:18:48.699Z,11.33
2018-04-11T21:21:15.158Z,11.00
2018-04-11T21:23:41.680Z,10.90
2018-04-11T21:26:08.124Z,10.93
2018-04-11T21:28:34.537Z,9.63
2018-04-11T21:31:00.922Z,11.03
2018-04-11T21:33:27.308Z,10.57
2018-04-11T21:35:53.721Z,10.63
2018-04-11T21:38:20.152Z,10.23
2018-04-11T21:40:46.665Z,10.53
2018-04-11T21:43:13.164Z,10.50
2018-04-11T21:45:39.835Z,10.80
2018-04-11T21:48:06.314Z,10.03
2018-04-11T21:50:32.832Z,10.63
2018-04-11T21:52:59.455Z,10.50
2018-04-11T21:55:25.897Z,10.87
2018-04-11T21:57:52.489Z,10.20
2018-04-11T22:00:18.936Z,11.10
2018-04-11T22:02:45.411Z,10.10
2018-04-11T22:05:12.034Z,10.27
2018-04-11T22:07:38.525Z,9.63
2018-04-11T22:10:04.984Z,18.90
2018-04-11T22:12:31.497Z,12.67
2018-04-11T22:14:58.070Z,11.60
2018-04-11T22:17:24.551Z,9.60
2018-04-11T22:19:50.938Z,10.07
2018-04-11T22:22:17.432Z,9.50
2018-04-11T22:24:43.965Z,9.37
2018-04-11T22:27:10.491Z,9.37
2018-04-11T22:29:36.964Z,8.77
2018-04-11T22:32:03.537Z,9.10
2018-04-11T22:34:30.062Z,8.80
2018-04-11T22:36:56.532Z,9.10
2018-04-11T22:39:23.058Z,9.60
2018-04-11T22:41:49.530Z,8.90
2018-04-11T22:44:16.185Z,9.50
2018-04-11T22:46:42.614Z,9.70
2018-04-11T22:49:09.272Z,9.77
2018-04-11T22:51:35.669Z,9.27
2018-04-11T22:54:02.140Z,9.17
2018-04-11T22:56:28.708Z,10.10
2018-04-11T22:58:55.195Z,10.05
2018-04-11T23:01:21.641Z,9.70
2018-04-11T23:03:48.159Z,10.00
2018-04-11T23:06:14.623Z,10.30
2018-04-11T23:08:41.137Z,10.77
2018-04-11T23:11:07.662Z,9.52
2018-04-11T23:13:34.178Z,9.90
2018-04-11T23:16:00.670Z,9.03
2018-04-11T23:18:27.287Z,9.40
2018-04-11T23:20:53.833Z,9.27
2018-04-11T23:23:20.319Z,9.37
2018-04-11T23:25:46.763Z,9.95
2018-04-11T23:28:13.361Z,10.30
2018-04-11T23:30:39.828Z,11.20
2018-04-11T23:33:06.265Z,8.85
2018-04-11T23:35:32.678Z,9.52
2018-04-11T23:37:59.216Z,10.10
2018-04-11T23:40:25.777Z,9.63
2018-04-11T23:42:52.318Z,10.35
2018-04-11T23:45:18.824Z,8.38
2018-04-11T23:47:45.336Z,9.30
2018-04-11T23:50:11.744Z,8.85
2018-04-11T23:52:38.198Z,9.50
2018-04-11T23:55:04.659Z,9.23
2018-04-11T23:57:31.132Z,9.45
2018-04-11T23:59:57.603Z,9.60
